sensor_id;sensor_type;location;lat;lon;timestamp;P1;durP1;ratioP1;P2;durP2;ratioP2
84915;SDS011;75178;53.054;5.846;2024-02-26T00:02:40;18.90;;;12.95;;
84915;SDS011;75178;53.054;5.846;2024-02-26T00:05:24;21.55;;;13.75;;
84915;SDS011;75178;53.054;5.846;2024-02-26T00:08:09;22.63;;;14.48;;
84915;SDS011;75178;53.054;5.846;2024-02-26T00:10:53;24.60;;;13.88;;
84915;SDS011;75178;53.054;5.846;2024-02-26T00:13:37;23.48;;;13.32;;
84915;SDS011;75178;53.054;5.846;2024-02-26T00:16:21;21.30;;;14.18;;
84915;SDS011;75178;53.054;5.846;2024-02-26T00:19:07;23.33;;;14.90;;
84915;SDS011;75178;53.054;5.846;2024-02-26T00:21:51;20.38;;;13.43;;
84915;SDS011;75178;53.054;5.846;2024-02-26T00:24:36;25.13;;;15.20;;
84915;SDS011;75178;53.054;5.846;2024-02-26T00:27:20;23.20;;;14.38;;
84915;SDS011;75178;53.054;5.846;2024-02-26T00:30:04;24.27;;;15.35;;
84915;SDS011;75178;53.054;5.846;2024-02-26T00:32:49;23.77;;;15.48;;
84915;SDS011;75178;53.054;5.846;2024-02-26T00:35:35;23.15;;;14.73;;
84915;SDS011;75178;53.054;5.846;2024-02-26T00:38:19;26.83;;;15.15;;
84915;SDS011;75178;53.054;5.846;2024-02-26T00:41:03;20.40;;;14.38;;
84915;SDS011;75178;53.054;5.846;2024-02-26T00:43:47;23.83;;;16.13;;
84915;SDS011;75178;53.054;5.846;2024-02-26T00:46:31;24.88;;;16.02;;
84915;SDS011;75178;53.054;5.846;2024-02-26T00:49:16;21.80;;;13.70;;
84915;SDS011;75178;53.054;5.846;2024-02-26T00:52:01;22.77;;;15.00;;
84915;SDS011;75178;53.054;5.846;2024-02-26T00:54:45;23.08;;;15.82;;
84915;SDS011;75178;53.054;5.846;2024-02-26T00:57:30;21.20;;;13.27;;
84915;SDS011;75178;53.054;5.846;2024-02-26T01:00:14;21.00;;;15.25;;
84915;SDS011;75178;53.054;5.846;2024-02-26T01:02:59;21.20;;;13.80;;
84915;SDS011;75178;53.054;5.846;2024-02-26T01:05:43;23.40;;;13.77;;
84915;SDS011;75178;53.054;5.846;2024-02-26T01:08:29;22.50;;;13.90;;
84915;SDS011;75178;53.054;5.846;2024-02-26T01:11:13;21.50;;;13.50;;
84915;SDS011;75178;53.054;5.846;2024-02-26T01:13:57;19.85;;;12.82;;
84915;SDS011;75178;53.054;5.846;2024-02-26T01:16:41;17.90;;;12.48;;
84915;SDS011;75178;53.054;5.846;2024-02-26T01:19:25;16.45;;;11.85;;
84915;SDS011;75178;53.054;5.846;2024-02-26T01:22:09;19.58;;;12.32;;
84915;SDS011;75178;53.054;5.846;2024-02-26T01:24:55;17.30;;;12.32;;
84915;SDS011;75178;53.054;5.846;2024-02-26T01:27:39;20.63;;;12.02;;
84915;SDS011;75178;53.054;5.846;2024-02-26T01:30:23;16.65;;;11.63;;
84915;SDS011;75178;53.054;5.846;2024-02-26T01:33:07;20.73;;;12.98;;
84915;SDS011;75178;53.054;5.846;2024-02-26T01:35:52;18.08;;;12.75;;
84915;SDS011;75178;53.054;5.846;2024-02-26T01:38:36;16.50;;;11.93;;
84915;SDS011;75178;53.054;5.846;2024-02-26T01:41:21;16.42;;;12.00;;
84915;SDS011;75178;53.054;5.846;2024-02-26T01:44:05;15.77;;;11.60;;
84915;SDS011;75178;53.054;5.846;2024-02-26T01:46:50;15.35;;;10.50;;
84915;SDS011;75178;53.054;5.846;2024-02-26T01:49:34;16.23;;;11.27;;
84915;SDS011;75178;53.054;5.846;2024-02-26T01:52:19;18.20;;;11.63;;
84915;SDS011;75178;53.054;5.846;2024-02-26T01:55:04;17.33;;;11.32;;
84915;SDS011;75178;53.054;5.846;2024-02-26T01:57:50;15.10;;;11.40;;
84915;SDS011;75178;53.054;5.846;2024-02-26T02:00:36;18.80;;;11.38;;
84915;SDS011;75178;53.054;5.846;2024-02-26T02:03:21;17.98;;;11.35;;
84915;SDS011;75178;53.054;5.846;2024-02-26T02:06:06;13.05;;;10.15;;
84915;SDS011;75178;53.054;5.846;2024-02-26T02:08:50;14.55;;;10.00;;
84915;SDS011;75178;53.054;5.846;2024-02-26T02:11:35;14.13;;;10.20;;
84915;SDS011;75178;53.054;5.846;2024-02-26T02:14:21;17.42;;;10.13;;
84915;SDS011;75178;53.054;5.846;2024-02-26T02:17:05;13.23;;;9.90;;
84915;SDS011;75178;53.054;5.846;2024-02-26T02:19:50;14.40;;;10.27;;
84915;SDS011;75178;53.054;5.846;2024-02-26T02:22:35;12.57;;;9.43;;
84915;SDS011;75178;53.054;5.846;2024-02-26T02:25:19;14.18;;;9.40;;
84915;SDS011;75178;53.054;5.846;2024-02-26T02:28:04;11.05;;;8.65;;
84915;SDS011;75178;53.054;5.846;2024-02-26T02:30:49;13.70;;;9.00;;
84915;SDS011;75178;53.054;5.846;2024-02-26T02:33:33;13.45;;;9.50;;
84915;SDS011;75178;53.054;5.846;2024-02-26T02:36:18;13.10;;;9.38;;
84915;SDS011;75178;53.054;5.846;2024-02-26T02:39:04;12.90;;;9.43;;
84915;SDS011;75178;53.054;5.846;2024-02-26T02:41:48;14.30;;;10.15;;
84915;SDS011;75178;53.054;5.846;2024-02-26T02:44:32;10.27;;;8.70;;
84915;SDS011;75178;53.054;5.846;2024-02-26T02:47:16;13.90;;;9.05;;
84915;SDS011;75178;53.054;5.846;2024-02-26T02:50:01;10.30;;;7.90;;
84915;SDS011;75178;53.054;5.846;2024-02-26T02:52:45;11.05;;;8.25;;
84915;SDS011;75178;53.054;5.846;2024-02-26T02:55:31;10.98;;;8.50;;
84915;SDS011;75178;53.054;5.846;2024-02-26T02:58:15;11.60;;;8.48;;
84915;SDS011;75178;53.054;5.846;2024-02-26T03:00:59;11.77;;;8.90;;
84915;SDS011;75178;53.054;5.846;2024-02-26T03:03:43;11.77;;;8.25;;
84915;SDS011;75178;53.054;5.846;2024-02-26T03:06:28;11.73;;;8.32;;
84915;SDS011;75178;53.054;5.846;2024-02-26T03:09:12;14.48;;;8.75;;
84915;SDS011;75178;53.054;5.846;2024-02-26T03:11:58;14.27;;;9.18;;
84915;SDS011;75178;53.054;5.846;2024-02-26T03:14:42;9.77;;;7.75;;
84915;SDS011;75178;53.054;5.846;2024-02-26T03:17:26;9.18;;;7.07;;
84915;SDS011;75178;53.054;5.846;2024-02-26T03:20:10;13.40;;;7.70;;
84915;SDS011;75178;53.054;5.846;2024-02-26T03:22:55;12.93;;;7.80;;
84915;SDS011;75178;53.054;5.846;2024-02-26T03:25:39;11.20;;;7.35;;
84915;SDS011;75178;53.054;5.846;2024-02-26T03:28:26;7.78;;;6.80;;
84915;SDS011;75178;53.054;5.846;2024-02-26T03:31:11;7.55;;;6.75;;
84915;SDS011;75178;53.054;5.846;2024-02-26T03:33:55;13.88;;;7.05;;
84915;SDS011;75178;53.054;5.846;2024-02-26T03:36:39;8.93;;;6.78;;
84915;SDS011;75178;53.054;5.846;2024-02-26T03:39:23;8.70;;;7.15;;
84915;SDS011;75178;53.054;5.846;2024-02-26T03:42:07;9.48;;;6.78;;
84915;SDS011;75178;53.054;5.846;2024-02-26T03:44:52;9.30;;;6.85;;
84915;SDS011;75178;53.054;5.846;2024-02-26T03:47:37;10.93;;;7.03;;
84915;SDS011;75178;53.054;5.846;2024-02-26T03:50:21;10.68;;;6.18;;
84915;SDS011;75178;53.054;5.846;2024-02-26T03:53:06;9.55;;;5.93;;
84915;SDS011;75178;53.054;5.846;2024-02-26T03:55:49;11.00;;;5.97;;
84915;SDS011;75178;53.054;5.846;2024-02-26T03:58:34;6.72;;;5.90;;
84915;SDS011;75178;53.054;5.846;2024-02-26T04:01:19;8.93;;;5.57;;
84915;SDS011;75178;53.054;5.846;2024-02-26T04:04:03;9.20;;;6.18;;
84915;SDS011;75178;53.054;5.846;2024-02-26T04:06:48;8.55;;;5.70;;
84915;SDS011;75178;53.054;5.846;2024-02-26T04:09:32;8.65;;;6.07;;
84915;SDS011;75178;53.054;5.846;2024-02-26T04:12:16;6.72;;;5.70;;
84915;SDS011;75178;53.054;5.846;2024-02-26T04:15:00;9.73;;;5.78;;
84915;SDS011;75178;53.054;5.846;2024-02-26T04:17:46;7.60;;;5.28;;
84915;SDS011;75178;53.054;5.846;2024-02-26T04:20:30;8.48;;;5.03;;
84915;SDS011;75178;53.054;5.846;2024-02-26T04:23:14;6.90;;;5.30;;
84915;SDS011;75178;53.054;5.846;2024-02-26T04:25:58;6.57;;;5.20;;
84915;SDS011;75178;53.054;5.846;2024-02-26T04:28:43;8.75;;;5.35;;
84915;SDS011;75178;53.054;5.846;2024-02-26T04:31:27;6.63;;;5.07;;
84915;SDS011;75178;53.054;5.846;2024-02-26T04:34:12;13.43;;;5.70;;
84915;SDS011;75178;53.054;5.846;2024-02-26T04:36:57;8.07;;;5.65;;
84915;SDS011;75178;53.054;5.846;2024-02-26T04:39:41;10.85;;;5.38;;
84915;SDS011;75178;53.054;5.846;2024-02-26T04:42:25;7.78;;;5.78;;
84915;SDS011;75178;53.054;5.846;2024-02-26T04:45:10;12.85;;;5.85;;
84915;SDS011;75178;53.054;5.846;2024-02-26T04:47:54;9.57;;;5.97;;
84915;SDS011;75178;53.054;5.846;2024-02-26T04:50:40;10.02;;;6.43;;
84915;SDS011;75178;53.054;5.846;2024-02-26T04:53:24;9.13;;;6.28;;
84915;SDS011;75178;53.054;5.846;2024-02-26T04:56:08;8.77;;;6.03;;
84915;SDS011;75178;53.054;5.846;2024-02-26T04:58:52;10.25;;;5.95;;
84915;SDS011;75178;53.054;5.846;2024-02-26T05:01:36;11.25;;;6.82;;
84915;SDS011;75178;53.054;5.846;2024-02-26T05:04:20;7.78;;;5.85;;
84915;SDS011;75178;53.054;5.846;2024-02-26T05:07:06;10.60;;;6.68;;
84915;SDS011;75178;53.054;5.846;2024-02-26T05:09:50;11.77;;;6.22;;
84915;SDS011;75178;53.054;5.846;2024-02-26T05:12:35;10.27;;;7.00;;
84915;SDS011;75178;53.054;5.846;2024-02-26T05:15:19;7.65;;;6.20;;
84915;SDS011;75178;53.054;5.846;2024-02-26T05:18:03;9.52;;;5.95;;
84915;SDS011;75178;53.054;5.846;2024-02-26T05:20:48;9.15;;;6.45;;
84915;SDS011;75178;53.054;5.846;2024-02-26T05:23:33;14.73;;;6.38;;
84915;SDS011;75178;53.054;5.846;2024-02-26T05:26:20;12.60;;;6.00;;
84915;SDS011;75178;53.054;5.846;2024-02-26T05:29:05;10.57;;;6.63;;
84915;SDS011;75178;53.054;5.846;2024-02-26T05:31:49;13.70;;;6.32;;
84915;SDS011;75178;53.054;5.846;2024-02-26T05:34:33;8.10;;;6.35;;
84915;SDS011;75178;53.054;5.846;2024-02-26T05:37:17;9.45;;;6.00;;
84915;SDS011;75178;53.054;5.846;2024-02-26T05:40:04;11.10;;;6.63;;
84915;SDS011;75178;53.054;5.846;2024-02-26T05:42:52;8.25;;;5.78;;
84915;SDS011;75178;53.054;5.846;2024-02-26T05:45:36;12.75;;;5.75;;
84915;SDS011;75178;53.054;5.846;2024-02-26T05:48:21;7.90;;;4.88;;
84915;SDS011;75178;53.054;5.846;2024-02-26T05:51:05;8.10;;;5.72;;
84915;SDS011;75178;53.054;5.846;2024-02-26T05:53:49;8.10;;;5.15;;
84915;SDS011;75178;53.054;5.846;2024-02-26T05:56:35;8.60;;;4.93;;
84915;SDS011;75178;53.054;5.846;2024-02-26T05:59:19;5.72;;;4.45;;
84915;SDS011;75178;53.054;5.846;2024-02-26T06:02:03;6.95;;;5.05;;
84915;SDS011;75178;53.054;5.846;2024-02-26T06:04:48;10.15;;;4.43;;
84915;SDS011;75178;53.054;5.846;2024-02-26T06:07:32;4.97;;;4.25;;
84915;SDS011;75178;53.054;5.846;2024-02-26T06:10:16;6.18;;;4.22;;
84915;SDS011;75178;53.054;5.846;2024-02-26T06:13:02;7.20;;;4.18;;
84915;SDS011;75178;53.054;5.846;2024-02-26T06:15:47;6.30;;;4.00;;
84915;SDS011;75178;53.054;5.846;2024-02-26T06:18:31;6.80;;;4.07;;
84915;SDS011;75178;53.054;5.846;2024-02-26T06:21:16;6.45;;;3.40;;
84915;SDS011;75178;53.054;5.846;2024-02-26T06:24:00;6.88;;;3.28;;
84915;SDS011;75178;53.054;5.846;2024-02-26T06:26:45;5.45;;;3.33;;
84915;SDS011;75178;53.054;5.846;2024-02-26T06:29:30;6.60;;;3.28;;
84915;SDS011;75178;53.054;5.846;2024-02-26T06:32:15;3.65;;;2.80;;
84915;SDS011;75178;53.054;5.846;2024-02-26T06:34:59;5.05;;;3.17;;
84915;SDS011;75178;53.054;5.846;2024-02-26T06:37:43;8.82;;;3.35;;
84915;SDS011;75178;53.054;5.846;2024-02-26T06:40:27;4.57;;;2.63;;
84915;SDS011;75178;53.054;5.846;2024-02-26T06:43:11;4.43;;;2.67;;
84915;SDS011;75178;53.054;5.846;2024-02-26T06:45:57;4.03;;;3.03;;
84915;SDS011;75178;53.054;5.846;2024-02-26T06:48:41;2.67;;;2.47;;
84915;SDS011;75178;53.054;5.846;2024-02-26T06:51:25;5.50;;;2.72;;
84915;SDS011;75178;53.054;5.846;2024-02-26T06:54:09;4.75;;;2.67;;
84915;SDS011;75178;53.054;5.846;2024-02-26T06:56:53;3.58;;;2.40;;
84915;SDS011;75178;53.054;5.846;2024-02-26T06:59:37;4.72;;;2.53;;
84915;SDS011;75178;53.054;5.846;2024-02-26T07:02:23;5.25;;;3.15;;
84915;SDS011;75178;53.054;5.846;2024-02-26T07:05:08;6.00;;;2.45;;
84915;SDS011;75178;53.054;5.846;2024-02-26T07:07:53;4.50;;;2.88;;
84915;SDS011;75178;53.054;5.846;2024-02-26T07:10:37;3.80;;;2.47;;
84915;SDS011;75178;53.054;5.846;2024-02-26T07:13:21;2.47;;;2.28;;
84915;SDS011;75178;53.054;5.846;2024-02-26T07:16:09;7.22;;;2.67;;
84915;SDS011;75178;53.054;5.846;2024-02-26T07:19:01;4.20;;;2.22;;
84915;SDS011;75178;53.054;5.846;2024-02-26T07:21:45;3.03;;;2.03;;
84915;SDS011;75178;53.054;5.846;2024-02-26T07:24:29;7.07;;;2.60;;
84915;SDS011;75178;53.054;5.846;2024-02-26T07:27:13;4.15;;;2.20;;
84915;SDS011;75178;53.054;5.846;2024-02-26T07:29:58;9.52;;;2.22;;
84915;SDS011;75178;53.054;5.846;2024-02-26T07:32:42;4.03;;;2.22;;
84915;SDS011;75178;53.054;5.846;2024-02-26T07:35:28;8.63;;;2.40;;
84915;SDS011;75178;53.054;5.846;2024-02-26T07:38:12;5.50;;;2.45;;
84915;SDS011;75178;53.054;5.846;2024-02-26T07:40:56;3.65;;;2.78;;
84915;SDS011;75178;53.054;5.846;2024-02-26T07:43:40;4.95;;;2.55;;
84915;SDS011;75178;53.054;5.846;2024-02-26T07:46:24;3.78;;;2.75;;
84915;SDS011;75178;53.054;5.846;2024-02-26T07:49:08;3.55;;;2.53;;
84915;SDS011;75178;53.054;5.846;2024-02-26T07:51:54;5.63;;;2.47;;
84915;SDS011;75178;53.054;5.846;2024-02-26T07:54:38;3.50;;;2.45;;
84915;SDS011;75178;53.054;5.846;2024-02-26T07:57:22;3.22;;;2.17;;
84915;SDS011;75178;53.054;5.846;2024-02-26T08:00:06;4.28;;;2.90;;
84915;SDS011;75178;53.054;5.846;2024-02-26T08:02:51;6.18;;;2.60;;
84915;SDS011;75178;53.054;5.846;2024-02-26T08:05:36;4.28;;;2.60;;
84915;SDS011;75178;53.054;5.846;2024-02-26T08:08:21;5.78;;;2.80;;
84915;SDS011;75178;53.054;5.846;2024-02-26T08:11:05;5.75;;;3.13;;
84915;SDS011;75178;53.054;5.846;2024-02-26T08:13:49;6.80;;;2.40;;
84915;SDS011;75178;53.054;5.846;2024-02-26T08:16:34;3.30;;;2.65;;
84915;SDS011;75178;53.054;5.846;2024-02-26T08:19:18;4.47;;;2.40;;
84915;SDS011;75178;53.054;5.846;2024-02-26T08:22:02;6.32;;;2.13;;
84915;SDS011;75178;53.054;5.846;2024-02-26T08:24:48;3.92;;;2.50;;
84915;SDS011;75178;53.054;5.846;2024-02-26T08:27:32;3.50;;;2.40;;
84915;SDS011;75178;53.054;5.846;2024-02-26T08:30:16;3.67;;;2.70;;
84915;SDS011;75178;53.054;5.846;2024-02-26T08:33:01;3.72;;;2.53;;
84915;SDS011;75178;53.054;5.846;2024-02-26T08:35:45;8.00;;;2.63;;
84915;SDS011;75178;53.054;5.846;2024-02-26T08:38:29;4.75;;;2.60;;
84915;SDS011;75178;53.054;5.846;2024-02-26T08:41:15;4.82;;;2.53;;
84915;SDS011;75178;53.054;5.846;2024-02-26T08:43:59;4.30;;;2.58;;
84915;SDS011;75178;53.054;5.846;2024-02-26T08:46:43;4.07;;;2.53;;
84915;SDS011;75178;53.054;5.846;2024-02-26T08:49:27;2.83;;;2.20;;
84915;SDS011;75178;53.054;5.846;2024-02-26T08:52:12;3.08;;;2.38;;
84915;SDS011;75178;53.054;5.846;2024-02-26T08:54:56;6.70;;;2.72;;
84915;SDS011;75178;53.054;5.846;2024-02-26T08:57:42;3.58;;;2.33;;
84915;SDS011;75178;53.054;5.846;2024-02-26T09:00:26;4.10;;;2.17;;
84915;SDS011;75178;53.054;5.846;2024-02-26T09:03:10;5.68;;;2.38;;
84915;SDS011;75178;53.054;5.846;2024-02-26T09:05:54;3.83;;;2.13;;
84915;SDS011;75178;53.054;5.846;2024-02-26T09:08:38;3.65;;;2.67;;
84915;SDS011;75178;53.054;5.846;2024-02-26T09:11:23;5.78;;;2.35;;
84915;SDS011;75178;53.054;5.846;2024-02-26T09:14:08;3.22;;;2.10;;
84915;SDS011;75178;53.054;5.846;2024-02-26T09:16:52;9.52;;;4.00;;
84915;SDS011;75178;53.054;5.846;2024-02-26T09:19:37;3.40;;;2.30;;
84915;SDS011;75178;53.054;5.846;2024-02-26T09:22:21;5.18;;;2.30;;
84915;SDS011;75178;53.054;5.846;2024-02-26T09:25:05;7.60;;;2.67;;
84915;SDS011;75178;53.054;5.846;2024-02-26T09:27:49;9.88;;;2.97;;
84915;SDS011;75178;53.054;5.846;2024-02-26T09:30:35;3.78;;;2.72;;
84915;SDS011;75178;53.054;5.846;2024-02-26T09:33:19;7.47;;;3.00;;
84915;SDS011;75178;53.054;5.846;2024-02-26T09:36:04;5.00;;;2.85;;
84915;SDS011;75178;53.054;5.846;2024-02-26T09:38:48;8.57;;;2.80;;
84915;SDS011;75178;53.054;5.846;2024-02-26T09:41:35;6.90;;;2.80;;
84915;SDS011;75178;53.054;5.846;2024-02-26T09:44:20;5.32;;;3.25;;
84915;SDS011;75178;53.054;5.846;2024-02-26T09:47:06;12.55;;;2.95;;
84915;SDS011;75178;53.054;5.846;2024-02-26T09:49:52;4.22;;;2.58;;
84915;SDS011;75178;53.054;5.846;2024-02-26T09:52:38;6.85;;;3.75;;
84915;SDS011;75178;53.054;5.846;2024-02-26T09:55:24;6.40;;;2.53;;
84915;SDS011;75178;53.054;5.846;2024-02-26T09:58:09;5.97;;;2.40;;
84915;SDS011;75178;53.054;5.846;2024-02-26T10:00:55;6.15;;;3.10;;
84915;SDS011;75178;53.054;5.846;2024-02-26T10:03:42;6.72;;;2.80;;
84915;SDS011;75178;53.054;5.846;2024-02-26T10:06:28;4.55;;;2.80;;
84915;SDS011;75178;53.054;5.846;2024-02-26T10:09:12;5.88;;;3.42;;
84915;SDS011;75178;53.054;5.846;2024-02-26T10:11:57;6.47;;;2.60;;
84915;SDS011;75178;53.054;5.846;2024-02-26T10:14:41;11.98;;;3.10;;
84915;SDS011;75178;53.054;5.846;2024-02-26T10:17:25;5.95;;;3.00;;
84915;SDS011;75178;53.054;5.846;2024-02-26T10:20:12;4.85;;;3.20;;
84915;SDS011;75178;53.054;5.846;2024-02-26T10:22:57;8.32;;;2.83;;
84915;SDS011;75178;53.054;5.846;2024-02-26T10:25:49;5.28;;;2.85;;
84915;SDS011;75178;53.054;5.846;2024-02-26T10:28:37;6.25;;;3.15;;
84915;SDS011;75178;53.054;5.846;2024-02-26T10:31:21;9.73;;;3.13;;
84915;SDS011;75178;53.054;5.846;2024-02-26T10:34:06;9.20;;;2.80;;
84915;SDS011;75178;53.054;5.846;2024-02-26T10:36:51;4.70;;;2.58;;
84915;SDS011;75178;53.054;5.846;2024-02-26T10:39:37;7.20;;;3.10;;
84915;SDS011;75178;53.054;5.846;2024-02-26T10:42:21;4.80;;;2.45;;
84915;SDS011;75178;53.054;5.846;2024-02-26T10:45:05;6.22;;;2.42;;
84915;SDS011;75178;53.054;5.846;2024-02-26T10:47:50;4.63;;;1.85;;
84915;SDS011;75178;53.054;5.846;2024-02-26T10:50:34;4.07;;;2.08;;
84915;SDS011;75178;53.054;5.846;2024-02-26T10:53:21;5.88;;;1.77;;
84915;SDS011;75178;53.054;5.846;2024-02-26T10:56:05;5.20;;;1.77;;
84915;SDS011;75178;53.054;5.846;2024-02-26T10:58:51;7.25;;;1.42;;
84915;SDS011;75178;53.054;5.846;2024-02-26T11:01:36;4.38;;;1.80;;
84915;SDS011;75178;53.054;5.846;2024-02-26T11:04:20;3.80;;;1.52;;
84915;SDS011;75178;53.054;5.846;2024-02-26T11:07:06;3.20;;;1.90;;
84915;SDS011;75178;53.054;5.846;2024-02-26T11:09:54;3.35;;;1.73;;
84915;SDS011;75178;53.054;5.846;2024-02-26T11:12:39;5.65;;;1.60;;
84915;SDS011;75178;53.054;5.846;2024-02-26T11:15:25;6.30;;;1.90;;
84915;SDS011;75178;53.054;5.846;2024-02-26T11:18:09;6.03;;;2.20;;
84915;SDS011;75178;53.054;5.846;2024-02-26T11:20:55;6.70;;;2.20;;
84915;SDS011;75178;53.054;5.846;2024-02-26T11:23:42;3.30;;;1.75;;
84915;SDS011;75178;53.054;5.846;2024-02-26T11:26:29;4.30;;;1.83;;
84915;SDS011;75178;53.054;5.846;2024-02-26T11:29:14;4.68;;;1.50;;
84915;SDS011;75178;53.054;5.846;2024-02-26T11:32:03;7.55;;;1.85;;
84915;SDS011;75178;53.054;5.846;2024-02-26T11:34:47;3.40;;;2.00;;
84915;SDS011;75178;53.054;5.846;2024-02-26T11:37:32;3.78;;;2.00;;
84915;SDS011;75178;53.054;5.846;2024-02-26T11:40:16;5.28;;;2.50;;
84915;SDS011;75178;53.054;5.846;2024-02-26T11:43:03;9.50;;;2.53;;
84915;SDS011;75178;53.054;5.846;2024-02-26T11:45:48;5.25;;;2.38;;
84915;SDS011;75178;53.054;5.846;2024-02-26T11:48:34;3.45;;;2.47;;
84915;SDS011;75178;53.054;5.846;2024-02-26T11:51:18;5.05;;;2.33;;
84915;SDS011;75178;53.054;5.846;2024-02-26T11:54:09;6.93;;;3.10;;
84915;SDS011;75178;53.054;5.846;2024-02-26T11:56:53;6.10;;;3.13;;
84915;SDS011;75178;53.054;5.846;2024-02-26T11:59:38;5.15;;;3.03;;
84915;SDS011;75178;53.054;5.846;2024-02-26T12:05:39;7.15;;;2.90;;
84915;SDS011;75178;53.054;5.846;2024-02-26T12:08:23;6.45;;;2.78;;
84915;SDS011;75178;53.054;5.846;2024-02-26T12:11:14;5.82;;;3.30;;
84915;SDS011;75178;53.054;5.846;2024-02-26T12:13:58;8.68;;;2.70;;
84915;SDS011;75178;53.054;5.846;2024-02-26T12:16:44;10.40;;;3.05;;
84915;SDS011;75178;53.054;5.846;2024-02-26T12:19:29;3.95;;;2.70;;
84915;SDS011;75178;53.054;5.846;2024-02-26T12:22:15;5.90;;;2.90;;
84915;SDS011;75178;53.054;5.846;2024-02-26T12:24:59;11.25;;;3.13;;
84915;SDS011;75178;53.054;5.846;2024-02-26T12:27:43;8.60;;;3.30;;
84915;SDS011;75178;53.054;5.846;2024-02-26T12:30:28;6.07;;;3.10;;
84915;SDS011;75178;53.054;5.846;2024-02-26T12:33:16;7.60;;;3.38;;
84915;SDS011;75178;53.054;5.846;2024-02-26T12:36:00;8.20;;;3.38;;
84915;SDS011;75178;53.054;5.846;2024-02-26T12:38:44;8.98;;;2.83;;
84915;SDS011;75178;53.054;5.846;2024-02-26T12:41:28;6.80;;;3.05;;
84915;SDS011;75178;53.054;5.846;2024-02-26T12:44:12;7.82;;;2.90;;
84915;SDS011;75178;53.054;5.846;2024-02-26T12:46:59;7.30;;;3.25;;
84915;SDS011;75178;53.054;5.846;2024-02-26T12:49:47;11.40;;;3.60;;
84915;SDS011;75178;53.054;5.846;2024-02-26T12:52:31;6.50;;;3.53;;
84915;SDS011;75178;53.054;5.846;2024-02-26T12:55:17;9.48;;;3.10;;
84915;SDS011;75178;53.054;5.846;2024-02-26T12:58:03;9.35;;;3.33;;
84915;SDS011;75178;53.054;5.846;2024-02-26T13:00:47;8.85;;;3.78;;
84915;SDS011;75178;53.054;5.846;2024-02-26T13:03:32;6.93;;;3.30;;
84915;SDS011;75178;53.054;5.846;2024-02-26T13:06:20;8.15;;;3.00;;
84915;SDS011;75178;53.054;5.846;2024-02-26T13:09:05;7.72;;;3.45;;
84915;SDS011;75178;53.054;5.846;2024-02-26T13:11:52;7.38;;;3.45;;
84915;SDS011;75178;53.054;5.846;2024-02-26T13:14:37;8.32;;;3.95;;
84915;SDS011;75178;53.054;5.846;2024-02-26T13:17:21;12.45;;;4.13;;
84915;SDS011;75178;53.054;5.846;2024-02-26T13:20:06;8.30;;;3.80;;
84915;SDS011;75178;53.054;5.846;2024-02-26T13:22:53;8.52;;;3.83;;
84915;SDS011;75178;53.054;5.846;2024-02-26T13:25:43;11.88;;;5.50;;
84915;SDS011;75178;53.054;5.846;2024-02-26T13:28:28;7.47;;;3.50;;
84915;SDS011;75178;53.054;5.846;2024-02-26T13:31:12;9.30;;;3.67;;
84915;SDS011;75178;53.054;5.846;2024-02-26T13:33:56;11.23;;;3.75;;
84915;SDS011;75178;53.054;5.846;2024-02-26T13:36:40;6.32;;;2.83;;
84915;SDS011;75178;53.054;5.846;2024-02-26T13:39:27;8.50;;;3.50;;
84915;SDS011;75178;53.054;5.846;2024-02-26T13:42:11;9.43;;;3.80;;
84915;SDS011;75178;53.054;5.846;2024-02-26T13:44:55;6.93;;;3.38;;
84915;SDS011;75178;53.054;5.846;2024-02-26T13:47:40;5.38;;;3.13;;
84915;SDS011;75178;53.054;5.846;2024-02-26T13:50:24;9.15;;;2.97;;
84915;SDS011;75178;53.054;5.846;2024-02-26T13:53:08;4.60;;;2.80;;
84915;SDS011;75178;53.054;5.846;2024-02-26T13:55:53;8.80;;;3.22;;
84915;SDS011;75178;53.054;5.846;2024-02-26T13:58:38;6.82;;;3.20;;
84915;SDS011;75178;53.054;5.846;2024-02-26T14:01:22;7.63;;;3.10;;
84915;SDS011;75178;53.054;5.846;2024-02-26T14:04:06;8.07;;;3.40;;
84915;SDS011;75178;53.054;5.846;2024-02-26T14:06:50;5.95;;;2.80;;
84915;SDS011;75178;53.054;5.846;2024-02-26T14:09:40;8.60;;;2.47;;
84915;SDS011;75178;53.054;5.846;2024-02-26T14:12:26;7.22;;;3.05;;
84915;SDS011;75178;53.054;5.846;2024-02-26T14:15:10;7.47;;;3.42;;
84915;SDS011;75178;53.054;5.846;2024-02-26T14:17:55;7.13;;;4.15;;
84915;SDS011;75178;53.054;5.846;2024-02-26T14:20:39;10.15;;;3.85;;
84915;SDS011;75178;53.054;5.846;2024-02-26T14:23:23;7.75;;;3.25;;
84915;SDS011;75178;53.054;5.846;2024-02-26T14:26:09;9.23;;;3.15;;
84915;SDS011;75178;53.054;5.846;2024-02-26T14:28:55;6.88;;;3.55;;
84915;SDS011;75178;53.054;5.846;2024-02-26T14:31:39;8.07;;;3.30;;
84915;SDS011;75178;53.054;5.846;2024-02-26T14:34:23;4.88;;;2.95;;
84915;SDS011;75178;53.054;5.846;2024-02-26T14:37:07;11.13;;;3.95;;
84915;SDS011;75178;53.054;5.846;2024-02-26T14:39:51;7.30;;;3.60;;
84915;SDS011;75178;53.054;5.846;2024-02-26T14:42:35;4.80;;;2.97;;
84915;SDS011;75178;53.054;5.846;2024-02-26T14:45:21;8.05;;;3.00;;
84915;SDS011;75178;53.054;5.846;2024-02-26T14:48:05;9.27;;;3.75;;
84915;SDS011;75178;53.054;5.846;2024-02-26T14:50:50;8.57;;;2.75;;
84915;SDS011;75178;53.054;5.846;2024-02-26T14:53:34;6.97;;;2.90;;
84915;SDS011;75178;53.054;5.846;2024-02-26T14:56:18;8.93;;;3.00;;
84915;SDS011;75178;53.054;5.846;2024-02-26T14:59:02;3.85;;;2.75;;
84915;SDS011;75178;53.054;5.846;2024-02-26T15:01:48;3.00;;;2.40;;
84915;SDS011;75178;53.054;5.846;2024-02-26T15:04:32;3.92;;;2.65;;
84915;SDS011;75178;53.054;5.846;2024-02-26T15:07:16;6.38;;;2.35;;
84915;SDS011;75178;53.054;5.846;2024-02-26T15:10:00;5.05;;;2.60;;
84915;SDS011;75178;53.054;5.846;2024-02-26T15:12:44;9.63;;;2.88;;
84915;SDS011;75178;53.054;5.846;2024-02-26T15:15:28;4.00;;;2.70;;
84915;SDS011;75178;53.054;5.846;2024-02-26T15:18:14;7.80;;;2.90;;
84915;SDS011;75178;53.054;5.846;2024-02-26T15:20:58;10.80;;;2.85;;
84915;SDS011;75178;53.054;5.846;2024-02-26T15:23:42;5.97;;;2.72;;
84915;SDS011;75178;53.054;5.846;2024-02-26T15:26:27;4.60;;;2.50;;
84915;SDS011;75178;53.054;5.846;2024-02-26T15:29:11;6.45;;;2.70;;
84915;SDS011;75178;53.054;5.846;2024-02-26T15:31:56;6.65;;;2.85;;
84915;SDS011;75178;53.054;5.846;2024-02-26T15:34:41;2.78;;;2.13;;
84915;SDS011;75178;53.054;5.846;2024-02-26T15:37:26;7.32;;;2.38;;
84915;SDS011;75178;53.054;5.846;2024-02-26T15:40:10;6.13;;;2.28;;
84915;SDS011;75178;53.054;5.846;2024-02-26T15:42:55;5.35;;;2.70;;
84915;SDS011;75178;53.054;5.846;2024-02-26T15:45:39;6.43;;;2.67;;
84915;SDS011;75178;53.054;5.846;2024-02-26T15:48:24;3.60;;;2.05;;
84915;SDS011;75178;53.054;5.846;2024-02-26T15:51:10;6.95;;;2.05;;
84915;SDS011;75178;53.054;5.846;2024-02-26T15:54:02;4.88;;;1.98;;
84915;SDS011;75178;53.054;5.846;2024-02-26T15:56:46;5.30;;;1.80;;
84915;SDS011;75178;53.054;5.846;2024-02-26T15:59:31;5.88;;;1.63;;
84915;SDS011;75178;53.054;5.846;2024-02-26T16:02:16;4.15;;;1.48;;
84915;SDS011;75178;53.054;5.846;2024-02-26T16:05:00;5.00;;;1.33;;
84915;SDS011;75178;53.054;5.846;2024-02-26T16:07:48;3.65;;;1.30;;
84915;SDS011;75178;53.054;5.846;2024-02-26T16:10:34;3.47;;;1.30;;
84915;SDS011;75178;53.054;5.846;2024-02-26T16:13:19;3.53;;;1.20;;
84915;SDS011;75178;53.054;5.846;2024-02-26T16:16:04;3.05;;;1.30;;
84915;SDS011;75178;53.054;5.846;2024-02-26T16:18:51;9.57;;;1.67;;
84915;SDS011;75178;53.054;5.846;2024-02-26T16:21:41;7.05;;;1.33;;
84915;SDS011;75178;53.054;5.846;2024-02-26T16:24:26;6.32;;;1.65;;
84915;SDS011;75178;53.054;5.846;2024-02-26T16:27:11;4.50;;;1.20;;
84915;SDS011;75178;53.054;5.846;2024-02-26T16:29:55;4.90;;;1.25;;
84915;SDS011;75178;53.054;5.846;2024-02-26T16:32:39;3.47;;;0.95;;